Federal Champlain — V7NK2 — position and weather

sailwx.info

Track history (hours):
 
Tides and Currents Weather Stations Pressure Air Temp Water Temp Dewpoint Dewpoint Depression Visibility Wind Speed Wind Dir Waves Ship Positions

Federal Champlain

Last reported at 2017-Dec-14 18:26 UTC. Time now 2017-Dec-17 00:48 UTC.
Position N 45°24' W 073°34'.

Length 200 m; draft 8 m.

Type: Cargo ship. MMSI: 538006468.

Date/timePositionNaut miles runAvg speedWind from/ knotsBaromVisibWave heightAir tempDewpointWater temp
2017-Dec-14 18:26N 45°24' W 073°34'0 0.0
2017-Dec-14 17:59N 45°24' W 073°34'0 0.1
2017-Dec-14 17:30N 45°24' W 073°35'1 1.6
2017-Dec-14 17:00N 45°24' W 073°36'2 4.0
2017-Dec-14 16:29N 45°24' W 073°39'3 5.4
2017-Dec-14 16:00N 45°25' W 073°42'9 9.4
2017-Dec-14 15:00N 45°20' W 073°54'2 3.0
2017-Dec-14 14:30N 45°19' W 073°55'1 1.4
2017-Dec-14 14:00N 45°18' W 073°56'0 0.4
2017-Dec-14 13:30N 45°18' W 073°56'2 3.0
2017-Dec-14 13:00N 45°17' W 073°57'4 8.3
2017-Dec-14 12:30N 45°14' W 074°01'4 7.3
2017-Dec-14 11:59N 45°13' W 074°06'5 9.9
2017-Dec-14 11:30N 45°14' W 074°13'4 5.9
2017-Dec-14 10:48N 45°12' W 074°18'  
2017-Dec-11 01:42N 45°29' W 083°17'313.8
2017-Dec-11 01:30N 45°31' W 083°19'713.8
2017-Dec-11 00:59N 45°37' W 083°26'713.9
2017-Dec-11 00:30N 45°41' W 083°33'  
Track history (hours):
 
Tides and Currents Weather Stations Pressure Air Temp Water Temp Dewpoint Dewpoint Depression Visibility Wind Speed Wind Dir Waves Ship Positions

Federal Champlain

Last reported at 2017-Dec-14 18:26 UTC. Time now 2017-Dec-17 00:48 UTC.
Position N 45°24' W 073°34'.

Length 200 m; draft 8 m.

Type: Cargo ship. MMSI: 538006468.

Date/timePositionNaut miles runAvg speedWind from/ knotsBaromVisibWave heightAir tempDewpointWater temp
2017-Dec-14 18:26N 45°24' W 073°34'0 0.0
2017-Dec-14 17:59N 45°24' W 073°34'0 0.1
2017-Dec-14 17:30N 45°24' W 073°35'1 1.6
2017-Dec-14 17:00N 45°24' W 073°36'2 4.0
2017-Dec-14 16:29N 45°24' W 073°39'3 5.4
2017-Dec-14 16:00N 45°25' W 073°42'9 9.4
2017-Dec-14 15:00N 45°20' W 073°54'2 3.0
2017-Dec-14 14:30N 45°19' W 073°55'1 1.4
2017-Dec-14 14:00N 45°18' W 073°56'0 0.4
2017-Dec-14 13:30N 45°18' W 073°56'2 3.0
2017-Dec-14 13:00N 45°17' W 073°57'4 8.3
2017-Dec-14 12:30N 45°14' W 074°01'4 7.3
2017-Dec-14 11:59N 45°13' W 074°06'5 9.9
2017-Dec-14 11:30N 45°14' W 074°13'4 5.9
2017-Dec-14 10:48N 45°12' W 074°18'  
2017-Dec-11 01:42N 45°29' W 083°17'313.8
2017-Dec-11 01:30N 45°31' W 083°19'713.8
2017-Dec-11 00:59N 45°37' W 083°26'713.9
2017-Dec-11 00:30N 45°41' W 083°33'  

Dump ship's entire track history